NCAR-RAP Real-Time Weather Data

Output produced by METARs form (26 May 2022  07:27 UTC)
found at http://weather.rap.ucar.edu/surface/
 
KMIA 260653Z 11007KT 10SM FEW024 BKN250 27/22 A3008 RMK AO2 SLP187 T02670217 $
KMIA 260553Z 10012KT 10SM FEW024 FEW033 BKN250 27/22 A3009 RMK AO2 SLP189 T02670222 10289 20267 58006 $
KMIA 260453Z 10013KT 10SM FEW024 BKN250 27/22 A3010 RMK AO2 SLP191 T02720222 403110261 $
KMIA 260353Z 10014KT 10SM FEW025 BKN250 27/22 A3011 RMK AO2 SLP195 T02720222 $
KMIA 260253Z 10014KT 10SM SCT025 BKN250 27/22 A3011 RMK AO2 SLP195 T02720222 53021 $
KMIA 260153Z 12014KT 10SM SCT027 BKN250 28/22 A3009 RMK AO2 SLP190 T02780222 $
KMIA 260053Z COR 10015G20KT 10SM SCT027 BKN250 28/23 A3006 RMK AO2 SLP179 CB DSNT S-SW T02780228 $
KMIA 252353Z 09015KT 10SM SCT027 SCT035 BKN250 28/22 A3005 RMK AO2 SLP174 CB DSNT SE-SW 60000 T02830222 10306 20283 53006 $
KMIA 252253Z 10012KT 10SM SCT027TCU BKN037 BKN250 28/23 A3003 RMK AO2 RAB41E50 SLP168 TCU S-W-NW P0000 T02830228 $
KMIA 252153Z 11011KT 10SM SCT035 SCT050 SCT250 29/22 A3002 RMK AO2 SLP164 T02940217 $
KMIA 252053Z 12015KT 10SM SCT035 BKN250 30/22 A3003 RMK AO2 SLP168 T03000217 58018 $
KMIA 251953Z 10017G23KT 10SM SCT035 BKN250 29/22 A3005 RMK AO2 SLP174 T02940217 $
KMIA 251853Z 12016G21KT 10SM SCT035 BKN250 31/21 A3007 RMK AO2 SLP182 T03060211 $
KMIA 251753Z COR 10014G21KT 10SM FEW035 BKN250 31/21 A3008 RMK AO2 SLP186 T03060206 10311 20278 58004 $
KMIA 251653Z 12016KT 10SM FEW033 SCT250 31/22 A3009 RMK AO2 SLP189 T03060217 $
KMIA 251553Z 12013KT 10SM SCT031 SCT250 31/22 A3009 RMK AO2 SLP190 T03060222 $
KMIA 251453Z COR 10019G25KT 10SM SCT032 SCT250 30/21 A3009 RMK AO2 SLP191 T03000211 51012 $
KMIA 251353Z 12013G19KT 10SM SCT032 SCT250 29/22 A3009 RMK AO2 SLP189 T02890222 $
KMIA 251253Z 11014G22KT 10SM FEW029 FEW038 SCT048 28/22 A3008 RMK AO2 SLP187 T02830217 $
KMIA 251153Z 11010KT 10SM CLR 28/22 A3006 RMK AO2 SLP179 T02780217 10278 20261 53012 $
KMIA 251053Z 12010KT 10SM SCT030 SCT250 27/21 A3004 RMK AO2 SLP173 T02670211 $
KMIA 250953Z COR 11009KT 10SM FEW030 FEW037 FEW250 26/21 A3003 RMK AO2 SLP170 T02610206 $
KMIA 250853Z 11008KT 10SM FEW032 FEW038 FEW250 26/21 A3002 RMK AO2 SLP167 T02610206 55005 $
KMIA 250753Z 11011KT 10SM FEW028 FEW037 27/21 A3002 RMK AO2 SLP166 T02670211 $
KMIA 250653Z 10010KT 10SM SCT030 SCT037 27/21 A3003 RMK AO2 SLP170 T02670211 $
KMIA 250553Z 11013KT 10SM FEW030 FEW037 27/21 A3004 RMK AO2 SLP172 T02720206 10278 20272 58006 $
KMIA 250453Z 11012KT 10SM SCT028 SCT038 SCT050 27/22 A3006 RMK AO2 SLP178 T02720217 403110256 $
KMIA 250353Z 10014KT 10SM SCT029 SCT040 SCT045 27/22 A3006 RMK AO2 SLP178 T02720217 $
KMIA 250253Z 09014KT 10SM SCT030 SCT038 27/22 A3006 RMK AO2 SLP178 T02720217 53009 $
KMIA 250153Z 10013G20KT 10SM SCT038 27/22 A3005 RMK AO2 SLP175 T02720217 $
KMIA 250053Z 10010KT 10SM SCT035 SCT130 SCT250 27/21 A3003 RMK AO2 SLP170 T02720211 $
KMIA 242353Z 10011KT 10SM SCT036 SCT130 SCT250 28/21 A3003 RMK AO2 SLP169 T02780206 10311 20278 53006 $
KMIA 242253Z 10012KT 10SM SCT039 SCT250 29/21 A3002 RMK AO2 SLP164 T02890211 $
KMIA 242153Z 11013KT 10SM SCT035 SCT250 29/20 A3001 RMK AO2 SLP162 T02940200 $
KMIA 242053Z 13010KT 10SM SCT039 SCT250 29/20 A3001 RMK AO2 SLP163 T02940200 56008 $
KMIA 241953Z 10015G19KT 10SM SCT039 BKN250 29/20 A3002 RMK AO2 SLP165 T02940200 $
KMIA 241853Z 11015G19KT 10SM SCT039 BKN250 31/21 A3003 RMK AO2 SLP169 T03060206 $
KMIA 241753Z 10013G23KT 10SM SCT035 BKN250 31/21 A3004 RMK AO2 SLP172 T03060211 10306 20272 58006 $
KMIA 241653Z 14011G19KT 10SM SCT033 BKN250 30/22 A3005 RMK AO2 SLP176 T03000217 $
KMIA 241553Z 11014KT 10SM BKN032 BKN045 BKN250 29/22 A3006 RMK AO2 SLP179 T02940222 $
KMIA 241453Z 13016G22KT 10SM BKN032 BKN044 BKN250 29/21 A3006 RMK AO2 SLP178 T02890211 53006 $
KMIA 241353Z 12013G23KT 10SM SCT026 BKN034 BKN250 29/22 A3005 RMK AO2 SLP175 T02890222 $
KMIA 241302Z 11013KT 10SM SCT028 BKN250 28/22 A3004 RMK AO2 T02780217 $
KMIA 241253Z 10015KT 10SM BKN026 BKN250 28/22 A3004 RMK AO2 SLP174 T02830222 $
KMIA 241249Z 10015KT 10SM BKN026 BKN250 28/23 A3004 RMK AO2 $
KMIA 241153Z 10014G20KT 10SM SCT026 SCT055 SCT250 28/22 A3003 RMK AO2 SLP168 70003 T02780217 10278 20261 53009 $
KMIA 241053Z 12012G22KT 10SM FEW036 FEW047 SCT070 27/22 A3002 RMK AO2 SLP166 T02720222 $
KMIA 240953Z 11011KT 10SM FEW026 FEW035 SCT250 27/22 A3000 RMK AO2 SLP160 T02670222 $
KMIA 240853Z 11010KT 10SM FEW026 27/22 A3000 RMK AO2 SLP160 T02670222 56019 $
KMIA 240753Z 10008KT 10SM FEW026 27/22 A3001 RMK AO2 SLP164 T02670222 $